sensor_id;sensor_type;location;lat;lon;timestamp;P1;durP1;ratioP1;P2;durP2;ratioP2
33190;SDS011;19554;42.652;23.364;2024-03-02T00:02:05;46.78;;;24.67;;
33190;SDS011;19554;42.652;23.364;2024-03-02T00:04:32;43.70;;;24.55;;
33190;SDS011;19554;42.652;23.364;2024-03-02T00:06:57;49.60;;;26.20;;
33190;SDS011;19554;42.652;23.364;2024-03-02T00:09:23;48.38;;;26.67;;
33190;SDS011;19554;42.652;23.364;2024-03-02T00:11:48;41.85;;;24.77;;
33190;SDS011;19554;42.652;23.364;2024-03-02T00:14:14;46.13;;;24.58;;
33190;SDS011;19554;42.652;23.364;2024-03-02T00:16:40;46.70;;;25.85;;
33190;SDS011;19554;42.652;23.364;2024-03-02T00:19:06;39.50;;;23.45;;
33190;SDS011;19554;42.652;23.364;2024-03-02T00:21:34;42.25;;;22.63;;
33190;SDS011;19554;42.652;23.364;2024-03-02T00:24:00;45.53;;;25.45;;
33190;SDS011;19554;42.652;23.364;2024-03-02T00:26:32;42.67;;;22.95;;
33190;SDS011;19554;42.652;23.364;2024-03-02T00:28:57;41.15;;;20.85;;
33190;SDS011;19554;42.652;23.364;2024-03-02T00:31:25;43.78;;;24.00;;
33190;SDS011;19554;42.652;23.364;2024-03-02T00:33:51;44.95;;;23.52;;
33190;SDS011;19554;42.652;23.364;2024-03-02T00:36:21;56.75;;;24.27;;
33190;SDS011;19554;42.652;23.364;2024-03-02T00:38:50;46.53;;;22.80;;
33190;SDS011;19554;42.652;23.364;2024-03-02T00:41:24;45.92;;;22.58;;
33190;SDS011;19554;42.652;23.364;2024-03-02T00:46:30;39.03;;;21.42;;
33190;SDS011;19554;42.652;23.364;2024-03-02T00:49:00;39.70;;;20.67;;
33190;SDS011;19554;42.652;23.364;2024-03-02T00:51:27;39.70;;;23.48;;
33190;SDS011;19554;42.652;23.364;2024-03-02T00:53:55;41.65;;;22.05;;
33190;SDS011;19554;42.652;23.364;2024-03-02T00:56:23;39.90;;;23.15;;
33190;SDS011;19554;42.652;23.364;2024-03-02T00:58:50;36.55;;;21.75;;
33190;SDS011;19554;42.652;23.364;2024-03-02T01:01:16;37.80;;;20.77;;
33190;SDS011;19554;42.652;23.364;2024-03-02T01:03:42;34.63;;;19.92;;
33190;SDS011;19554;42.652;23.364;2024-03-02T01:06:07;33.03;;;19.73;;
33190;SDS011;19554;42.652;23.364;2024-03-02T01:08:36;39.85;;;23.08;;
33190;SDS011;19554;42.652;23.364;2024-03-02T01:11:02;38.30;;;21.67;;
33190;SDS011;19554;42.652;23.364;2024-03-02T01:13:28;36.38;;;19.63;;
33190;SDS011;19554;42.652;23.364;2024-03-02T01:15:54;33.30;;;20.00;;
33190;SDS011;19554;42.652;23.364;2024-03-02T01:18:20;35.28;;;18.80;;
33190;SDS011;19554;42.652;23.364;2024-03-02T01:20:45;37.03;;;20.10;;
33190;SDS011;19554;42.652;23.364;2024-03-02T01:23:11;37.38;;;18.80;;
33190;SDS011;19554;42.652;23.364;2024-03-02T01:25:36;36.25;;;20.77;;
33190;SDS011;19554;42.652;23.364;2024-03-02T01:28:02;31.13;;;18.65;;
33190;SDS011;19554;42.652;23.364;2024-03-02T01:30:28;36.70;;;18.92;;
33190;SDS011;19554;42.652;23.364;2024-03-02T01:32:53;35.00;;;18.17;;
33190;SDS011;19554;42.652;23.364;2024-03-02T01:35:19;38.05;;;20.75;;
33190;SDS011;19554;42.652;23.364;2024-03-02T01:37:44;36.25;;;20.50;;
33190;SDS011;19554;42.652;23.364;2024-03-02T01:40:10;40.63;;;22.00;;
33190;SDS011;19554;42.652;23.364;2024-03-02T01:42:36;37.10;;;19.92;;
33190;SDS011;19554;42.652;23.364;2024-03-02T01:45:05;37.25;;;22.30;;
33190;SDS011;19554;42.652;23.364;2024-03-02T01:47:32;38.35;;;21.20;;
33190;SDS011;19554;42.652;23.364;2024-03-02T01:49:58;36.38;;;20.75;;
33190;SDS011;19554;42.652;23.364;2024-03-02T01:52:24;33.05;;;18.58;;
33190;SDS011;19554;42.652;23.364;2024-03-02T01:54:49;40.45;;;22.63;;
33190;SDS011;19554;42.652;23.364;2024-03-02T01:57:15;35.03;;;19.75;;
33190;SDS011;19554;42.652;23.364;2024-03-02T01:59:41;35.80;;;20.38;;
33190;SDS011;19554;42.652;23.364;2024-03-02T02:02:06;39.25;;;20.40;;
33190;SDS011;19554;42.652;23.364;2024-03-02T02:04:32;40.05;;;21.55;;
33190;SDS011;19554;42.652;23.364;2024-03-02T02:06:58;34.80;;;19.23;;
33190;SDS011;19554;42.652;23.364;2024-03-02T02:09:24;34.83;;;17.67;;
33190;SDS011;19554;42.652;23.364;2024-03-02T02:11:52;37.55;;;20.05;;
33190;SDS011;19554;42.652;23.364;2024-03-02T02:14:17;35.78;;;20.80;;
33190;SDS011;19554;42.652;23.364;2024-03-02T02:16:43;30.30;;;17.73;;
33190;SDS011;19554;42.652;23.364;2024-03-02T02:19:09;44.42;;;23.48;;
33190;SDS011;19554;42.652;23.364;2024-03-02T02:21:35;39.35;;;23.10;;
33190;SDS011;19554;42.652;23.364;2024-03-02T02:24:00;51.15;;;25.42;;
33190;SDS011;19554;42.652;23.364;2024-03-02T02:26:28;44.13;;;26.13;;
33190;SDS011;19554;42.652;23.364;2024-03-02T02:28:54;42.92;;;25.00;;
33190;SDS011;19554;42.652;23.364;2024-03-02T02:31:19;40.55;;;22.25;;
33190;SDS011;19554;42.652;23.364;2024-03-02T02:33:45;50.10;;;26.70;;
33190;SDS011;19554;42.652;23.364;2024-03-02T02:36:10;50.20;;;27.08;;
33190;SDS011;19554;42.652;23.364;2024-03-02T02:38:37;45.78;;;26.83;;
33190;SDS011;19554;42.652;23.364;2024-03-02T02:41:05;46.83;;;27.17;;
33190;SDS011;19554;42.652;23.364;2024-03-02T02:43:31;49.65;;;27.10;;
33190;SDS011;19554;42.652;23.364;2024-03-02T02:45:56;49.78;;;29.65;;
33190;SDS011;19554;42.652;23.364;2024-03-02T02:48:21;50.92;;;28.48;;
33190;SDS011;19554;42.652;23.364;2024-03-02T02:50:47;49.80;;;27.75;;
33190;SDS011;19554;42.652;23.364;2024-03-02T02:53:13;50.92;;;27.33;;
33190;SDS011;19554;42.652;23.364;2024-03-02T02:55:41;47.88;;;27.40;;
33190;SDS011;19554;42.652;23.364;2024-03-02T02:58:08;43.33;;;25.17;;
33190;SDS011;19554;42.652;23.364;2024-03-02T03:00:34;49.03;;;26.55;;
33190;SDS011;19554;42.652;23.364;2024-03-02T03:03:01;45.40;;;26.48;;
33190;SDS011;19554;42.652;23.364;2024-03-02T03:05:27;49.00;;;28.02;;
33190;SDS011;19554;42.652;23.364;2024-03-02T03:07:53;49.15;;;26.92;;
33190;SDS011;19554;42.652;23.364;2024-03-02T03:10:18;46.38;;;25.45;;
33190;SDS011;19554;42.652;23.364;2024-03-02T03:12:47;47.47;;;26.73;;
33190;SDS011;19554;42.652;23.364;2024-03-02T03:15:12;43.78;;;25.75;;
33190;SDS011;19554;42.652;23.364;2024-03-02T03:17:39;45.72;;;24.60;;
33190;SDS011;19554;42.652;23.364;2024-03-02T03:20:05;52.92;;;26.38;;
33190;SDS011;19554;42.652;23.364;2024-03-02T03:22:34;47.63;;;26.47;;
33190;SDS011;19554;42.652;23.364;2024-03-02T03:25:01;42.60;;;24.92;;
33190;SDS011;19554;42.652;23.364;2024-03-02T03:27:26;42.53;;;24.98;;
33190;SDS011;19554;42.652;23.364;2024-03-02T03:29:52;47.83;;;25.70;;
33190;SDS011;19554;42.652;23.364;2024-03-02T03:32:17;50.38;;;25.73;;
33190;SDS011;19554;42.652;23.364;2024-03-02T03:34:43;50.25;;;25.42;;
33190;SDS011;19554;42.652;23.364;2024-03-02T03:37:08;43.63;;;24.52;;
33190;SDS011;19554;42.652;23.364;2024-03-02T03:39:34;50.70;;;26.30;;
33190;SDS011;19554;42.652;23.364;2024-03-02T03:42:03;44.92;;;24.67;;
33190;SDS011;19554;42.652;23.364;2024-03-02T03:44:28;44.65;;;24.40;;
33190;SDS011;19554;42.652;23.364;2024-03-02T03:46:54;43.03;;;24.55;;
33190;SDS011;19554;42.652;23.364;2024-03-02T03:49:19;42.30;;;25.15;;
33190;SDS011;19554;42.652;23.364;2024-03-02T03:51:45;43.08;;;23.73;;
33190;SDS011;19554;42.652;23.364;2024-03-02T03:54:11;41.35;;;24.48;;
33190;SDS011;19554;42.652;23.364;2024-03-02T03:56:36;39.88;;;22.35;;
33190;SDS011;19554;42.652;23.364;2024-03-02T03:59:02;39.30;;;22.15;;
33190;SDS011;19554;42.652;23.364;2024-03-02T04:01:28;44.15;;;23.15;;
33190;SDS011;19554;42.652;23.364;2024-03-02T04:03:53;41.15;;;23.25;;
33190;SDS011;19554;42.652;23.364;2024-03-02T04:06:19;39.97;;;22.52;;
33190;SDS011;19554;42.652;23.364;2024-03-02T04:08:44;41.20;;;22.00;;
33190;SDS011;19554;42.652;23.364;2024-03-02T04:11:10;41.50;;;23.25;;
33190;SDS011;19554;42.652;23.364;2024-03-02T04:13:35;45.67;;;24.45;;
33190;SDS011;19554;42.652;23.364;2024-03-02T04:16:01;49.40;;;24.48;;
33190;SDS011;19554;42.652;23.364;2024-03-02T04:18:26;39.03;;;23.02;;
33190;SDS011;19554;42.652;23.364;2024-03-02T04:20:52;39.95;;;23.05;;
33190;SDS011;19554;42.652;23.364;2024-03-02T04:23:17;46.25;;;24.80;;
33190;SDS011;19554;42.652;23.364;2024-03-02T04:25:42;49.25;;;26.33;;
33190;SDS011;19554;42.652;23.364;2024-03-02T04:28:08;42.13;;;24.75;;
33190;SDS011;19554;42.652;23.364;2024-03-02T04:30:33;43.50;;;23.67;;
33190;SDS011;19554;42.652;23.364;2024-03-02T04:32:59;47.00;;;25.45;;
33190;SDS011;19554;42.652;23.364;2024-03-02T04:35:24;43.28;;;24.75;;
33190;SDS011;19554;42.652;23.364;2024-03-02T04:37:50;42.10;;;24.48;;
33190;SDS011;19554;42.652;23.364;2024-03-02T04:40:16;43.17;;;24.23;;
33190;SDS011;19554;42.652;23.364;2024-03-02T04:42:42;43.25;;;23.67;;
33190;SDS011;19554;42.652;23.364;2024-03-02T04:45:08;41.50;;;23.20;;
33190;SDS011;19554;42.652;23.364;2024-03-02T04:47:34;44.35;;;24.02;;
33190;SDS011;19554;42.652;23.364;2024-03-02T04:49:59;41.75;;;23.25;;
33190;SDS011;19554;42.652;23.364;2024-03-02T04:52:25;48.40;;;24.33;;
33190;SDS011;19554;42.652;23.364;2024-03-02T04:54:50;39.85;;;22.45;;
33190;SDS011;19554;42.652;23.364;2024-03-02T04:57:34;38.22;;;22.00;;
33190;SDS011;19554;42.652;23.364;2024-03-02T04:59:59;40.25;;;23.27;;
33190;SDS011;19554;42.652;23.364;2024-03-02T05:02:25;45.25;;;23.80;;
33190;SDS011;19554;42.652;23.364;2024-03-02T05:04:50;45.85;;;25.10;;
33190;SDS011;19554;42.652;23.364;2024-03-02T05:07:16;46.00;;;24.67;;
33190;SDS011;19554;42.652;23.364;2024-03-02T05:09:41;43.75;;;24.23;;
33190;SDS011;19554;42.652;23.364;2024-03-02T05:12:07;43.50;;;24.55;;
33190;SDS011;19554;42.652;23.364;2024-03-02T05:14:36;45.97;;;24.52;;
33190;SDS011;19554;42.652;23.364;2024-03-02T05:17:02;43.25;;;24.15;;
33190;SDS011;19554;42.652;23.364;2024-03-02T05:19:27;39.42;;;22.30;;
33190;SDS011;19554;42.652;23.364;2024-03-02T05:21:53;46.13;;;23.48;;
33190;SDS011;19554;42.652;23.364;2024-03-02T05:24:18;45.78;;;24.60;;
33190;SDS011;19554;42.652;23.364;2024-03-02T05:26:44;42.35;;;23.00;;
33190;SDS011;19554;42.652;23.364;2024-03-02T05:29:09;44.53;;;23.52;;
33190;SDS011;19554;42.652;23.364;2024-03-02T05:31:35;39.78;;;23.27;;
33190;SDS011;19554;42.652;23.364;2024-03-02T05:34:00;44.00;;;22.13;;
33190;SDS011;19554;42.652;23.364;2024-03-02T05:36:26;43.53;;;22.70;;
33190;SDS011;19554;42.652;23.364;2024-03-02T05:38:51;46.50;;;23.73;;
33190;SDS011;19554;42.652;23.364;2024-03-02T05:41:17;46.15;;;25.00;;
33190;SDS011;19554;42.652;23.364;2024-03-02T05:43:42;44.67;;;24.73;;
33190;SDS011;19554;42.652;23.364;2024-03-02T05:46:08;44.72;;;24.08;;
33190;SDS011;19554;42.652;23.364;2024-03-02T05:48:33;45.40;;;22.63;;
33190;SDS011;19554;42.652;23.364;2024-03-02T05:50:59;43.83;;;23.00;;
33190;SDS011;19554;42.652;23.364;2024-03-02T05:53:25;47.28;;;26.27;;
33190;SDS011;19554;42.652;23.364;2024-03-02T05:55:50;48.58;;;25.58;;
33190;SDS011;19554;42.652;23.364;2024-03-02T05:58:20;48.80;;;25.83;;
33190;SDS011;19554;42.652;23.364;2024-03-02T06:01:05;50.00;;;28.08;;
33190;SDS011;19554;42.652;23.364;2024-03-02T06:03:31;58.13;;;29.52;;
33190;SDS011;19554;42.652;23.364;2024-03-02T06:05:57;59.13;;;28.95;;
33190;SDS011;19554;42.652;23.364;2024-03-02T06:08:23;55.08;;;28.85;;
33190;SDS011;19554;42.652;23.364;2024-03-02T06:10:48;59.55;;;29.17;;
33190;SDS011;19554;42.652;23.364;2024-03-02T06:13:13;50.97;;;27.63;;
33190;SDS011;19554;42.652;23.364;2024-03-02T06:15:39;44.80;;;25.60;;
33190;SDS011;19554;42.652;23.364;2024-03-02T06:18:04;49.22;;;27.08;;
33190;SDS011;19554;42.652;23.364;2024-03-02T06:20:32;53.17;;;26.15;;
33190;SDS011;19554;42.652;23.364;2024-03-02T06:22:58;50.50;;;25.98;;
33190;SDS011;19554;42.652;23.364;2024-03-02T06:25:23;53.42;;;26.63;;
33190;SDS011;19554;42.652;23.364;2024-03-02T06:27:49;50.85;;;26.85;;
33190;SDS011;19554;42.652;23.364;2024-03-02T06:30:14;57.88;;;28.15;;
33190;SDS011;19554;42.652;23.364;2024-03-02T06:32:40;48.30;;;26.85;;
33190;SDS011;19554;42.652;23.364;2024-03-02T06:35:05;48.10;;;25.58;;
33190;SDS011;19554;42.652;23.364;2024-03-02T06:37:35;47.10;;;26.10;;
33190;SDS011;19554;42.652;23.364;2024-03-02T06:40:01;45.13;;;24.73;;
33190;SDS011;19554;42.652;23.364;2024-03-02T06:42:27;54.08;;;25.80;;
33190;SDS011;19554;42.652;23.364;2024-03-02T06:47:23;52.58;;;25.38;;
33190;SDS011;19554;42.652;23.364;2024-03-02T06:49:48;45.95;;;24.55;;
33190;SDS011;19554;42.652;23.364;2024-03-02T06:52:14;46.45;;;25.50;;
33190;SDS011;19554;42.652;23.364;2024-03-02T06:54:39;48.55;;;25.67;;
33190;SDS011;19554;42.652;23.364;2024-03-02T06:57:05;51.80;;;26.73;;
33190;SDS011;19554;42.652;23.364;2024-03-02T06:59:30;51.33;;;27.00;;
33190;SDS011;19554;42.652;23.364;2024-03-02T07:01:56;47.38;;;25.08;;
33190;SDS011;19554;42.652;23.364;2024-03-02T07:04:22;47.67;;;24.58;;
33190;SDS011;19554;42.652;23.364;2024-03-02T07:06:47;46.10;;;24.70;;
33190;SDS011;19554;42.652;23.364;2024-03-02T07:09:12;52.53;;;25.98;;
33190;SDS011;19554;42.652;23.364;2024-03-02T07:11:38;48.47;;;24.65;;
33190;SDS011;19554;42.652;23.364;2024-03-02T07:14:03;50.28;;;23.90;;
33190;SDS011;19554;42.652;23.364;2024-03-02T07:16:29;51.13;;;25.70;;
33190;SDS011;19554;42.652;23.364;2024-03-02T07:18:57;45.72;;;24.55;;
33190;SDS011;19554;42.652;23.364;2024-03-02T07:21:24;46.35;;;24.83;;
33190;SDS011;19554;42.652;23.364;2024-03-02T07:23:50;46.45;;;24.67;;
33190;SDS011;19554;42.652;23.364;2024-03-02T07:26:15;48.47;;;24.88;;
33190;SDS011;19554;42.652;23.364;2024-03-02T07:28:43;45.40;;;24.92;;
33190;SDS011;19554;42.652;23.364;2024-03-02T07:31:09;46.47;;;24.70;;
33190;SDS011;19554;42.652;23.364;2024-03-02T07:33:35;52.55;;;24.20;;
33190;SDS011;19554;42.652;23.364;2024-03-02T07:36:01;45.80;;;24.00;;
33190;SDS011;19554;42.652;23.364;2024-03-02T07:38:28;58.22;;;27.02;;
33190;SDS011;19554;42.652;23.364;2024-03-02T07:40:54;51.38;;;26.50;;
33190;SDS011;19554;42.652;23.364;2024-03-02T07:43:20;54.28;;;26.92;;
33190;SDS011;19554;42.652;23.364;2024-03-02T07:45:46;50.55;;;27.50;;
33190;SDS011;19554;42.652;23.364;2024-03-02T07:48:12;50.22;;;27.08;;
33190;SDS011;19554;42.652;23.364;2024-03-02T07:50:38;54.78;;;26.48;;
33190;SDS011;19554;42.652;23.364;2024-03-02T07:53:04;56.33;;;27.88;;
33190;SDS011;19554;42.652;23.364;2024-03-02T07:55:30;52.72;;;26.88;;
33190;SDS011;19554;42.652;23.364;2024-03-02T07:57:56;53.03;;;26.25;;
33190;SDS011;19554;42.652;23.364;2024-03-02T08:00:22;51.60;;;26.92;;
33190;SDS011;19554;42.652;23.364;2024-03-02T08:02:49;50.85;;;26.15;;
33190;SDS011;19554;42.652;23.364;2024-03-02T08:05:18;52.53;;;26.15;;
33190;SDS011;19554;42.652;23.364;2024-03-02T08:07:44;50.05;;;25.67;;
33190;SDS011;19554;42.652;23.364;2024-03-02T08:10:10;47.88;;;23.98;;
33190;SDS011;19554;42.652;23.364;2024-03-02T08:12:36;45.90;;;24.33;;
33190;SDS011;19554;42.652;23.364;2024-03-02T08:15:02;47.90;;;24.48;;
33190;SDS011;19554;42.652;23.364;2024-03-02T08:17:27;49.95;;;25.77;;
33190;SDS011;19554;42.652;23.364;2024-03-02T08:19:53;45.60;;;24.55;;
33190;SDS011;19554;42.652;23.364;2024-03-02T08:22:19;42.47;;;23.50;;
33190;SDS011;19554;42.652;23.364;2024-03-02T08:24:45;48.63;;;24.85;;
33190;SDS011;19554;42.652;23.364;2024-03-02T08:27:11;47.72;;;24.55;;
33190;SDS011;19554;42.652;23.364;2024-03-02T08:29:37;46.80;;;24.85;;
33190;SDS011;19554;42.652;23.364;2024-03-02T08:32:02;51.15;;;24.88;;
33190;SDS011;19554;42.652;23.364;2024-03-02T08:34:28;47.15;;;23.35;;
33190;SDS011;19554;42.652;23.364;2024-03-02T08:36:54;44.88;;;23.55;;
33190;SDS011;19554;42.652;23.364;2024-03-02T08:39:19;50.97;;;24.70;;
33190;SDS011;19554;42.652;23.364;2024-03-02T08:41:45;46.53;;;23.40;;
33190;SDS011;19554;42.652;23.364;2024-03-02T08:44:12;53.75;;;24.38;;
33190;SDS011;19554;42.652;23.364;2024-03-02T08:46:38;48.38;;;24.52;;
33190;SDS011;19554;42.652;23.364;2024-03-02T08:49:04;47.67;;;24.25;;
33190;SDS011;19554;42.652;23.364;2024-03-02T08:51:30;49.70;;;27.17;;
33190;SDS011;19554;42.652;23.364;2024-03-02T08:53:56;50.63;;;24.20;;
33190;SDS011;19554;42.652;23.364;2024-03-02T08:56:23;45.80;;;23.85;;
33190;SDS011;19554;42.652;23.364;2024-03-02T08:58:49;46.78;;;24.77;;
33190;SDS011;19554;42.652;23.364;2024-03-02T09:01:15;49.97;;;24.30;;
33190;SDS011;19554;42.652;23.364;2024-03-02T09:03:42;53.15;;;23.50;;
33190;SDS011;19554;42.652;23.364;2024-03-02T09:06:10;44.05;;;22.08;;
33190;SDS011;19554;42.652;23.364;2024-03-02T09:08:39;43.80;;;22.38;;
33190;SDS011;19554;42.652;23.364;2024-03-02T09:11:07;39.03;;;19.45;;
33190;SDS011;19554;42.652;23.364;2024-03-02T09:13:33;39.85;;;22.63;;
33190;SDS011;19554;42.652;23.364;2024-03-02T09:15:59;45.92;;;22.08;;
33190;SDS011;19554;42.652;23.364;2024-03-02T09:18:24;39.30;;;21.15;;
33190;SDS011;19554;42.652;23.364;2024-03-02T09:20:50;39.75;;;19.40;;
33190;SDS011;19554;42.652;23.364;2024-03-02T09:23:15;37.03;;;21.60;;
33190;SDS011;19554;42.652;23.364;2024-03-02T09:25:41;37.45;;;21.80;;
33190;SDS011;19554;42.652;23.364;2024-03-02T09:28:07;44.38;;;21.95;;
33190;SDS011;19554;42.652;23.364;2024-03-02T09:30:32;41.97;;;22.60;;
33190;SDS011;19554;42.652;23.364;2024-03-02T09:32:58;30.10;;;16.60;;
33190;SDS011;19554;42.652;23.364;2024-03-02T09:35:24;35.28;;;17.25;;
33190;SDS011;19554;42.652;23.364;2024-03-02T09:37:49;31.70;;;16.60;;
33190;SDS011;19554;42.652;23.364;2024-03-02T09:40:15;35.13;;;18.15;;
33190;SDS011;19554;42.652;23.364;2024-03-02T09:42:41;34.17;;;19.48;;
33190;SDS011;19554;42.652;23.364;2024-03-02T09:45:08;38.05;;;18.65;;
33190;SDS011;19554;42.652;23.364;2024-03-02T09:47:34;35.00;;;17.98;;
33190;SDS011;19554;42.652;23.364;2024-03-02T09:49:59;39.70;;;19.88;;
33190;SDS011;19554;42.652;23.364;2024-03-02T09:52:25;44.65;;;23.08;;
33190;SDS011;19554;42.652;23.364;2024-03-02T09:54:51;44.55;;;23.50;;
33190;SDS011;19554;42.652;23.364;2024-03-02T09:57:16;47.05;;;21.33;;
33190;SDS011;19554;42.652;23.364;2024-03-02T09:59:42;39.58;;;20.80;;
33190;SDS011;19554;42.652;23.364;2024-03-02T10:02:07;43.45;;;22.73;;
33190;SDS011;19554;42.652;23.364;2024-03-02T10:04:33;50.35;;;24.38;;
33190;SDS011;19554;42.652;23.364;2024-03-02T10:09:43;45.92;;;24.45;;
33190;SDS011;19554;42.652;23.364;2024-03-02T10:12:10;46.13;;;24.77;;
33190;SDS011;19554;42.652;23.364;2024-03-02T10:14:39;49.42;;;24.88;;
33190;SDS011;19554;42.652;23.364;2024-03-02T10:17:06;49.97;;;24.95;;
33190;SDS011;19554;42.652;23.364;2024-03-02T10:19:33;53.75;;;28.48;;
33190;SDS011;19554;42.652;23.364;2024-03-02T10:22:00;68.78;;;33.97;;
33190;SDS011;19554;42.652;23.364;2024-03-02T10:24:27;61.08;;;29.35;;
33190;SDS011;19554;42.652;23.364;2024-03-02T10:27:00;55.55;;;29.35;;
33190;SDS011;19554;42.652;23.364;2024-03-02T10:29:25;52.55;;;26.85;;
33190;SDS011;19554;42.652;23.364;2024-03-02T10:31:55;56.25;;;29.50;;
33190;SDS011;19554;42.652;23.364;2024-03-02T10:34:21;54.30;;;27.98;;
33190;SDS011;19554;42.652;23.364;2024-03-02T10:36:46;50.15;;;26.30;;
33190;SDS011;19554;42.652;23.364;2024-03-02T10:39:12;50.20;;;26.90;;
33190;SDS011;19554;42.652;23.364;2024-03-02T10:41:39;54.60;;;26.25;;
33190;SDS011;19554;42.652;23.364;2024-03-02T10:44:06;55.67;;;27.95;;
33190;SDS011;19554;42.652;23.364;2024-03-02T10:46:33;56.75;;;26.85;;
33190;SDS011;19554;42.652;23.364;2024-03-02T10:49:01;52.30;;;26.42;;
33190;SDS011;19554;42.652;23.364;2024-03-02T10:51:29;45.17;;;23.88;;
33190;SDS011;19554;42.652;23.364;2024-03-02T10:53:57;45.35;;;22.75;;
33190;SDS011;19554;42.652;23.364;2024-03-02T11:01:48;43.22;;;23.88;;
33190;SDS011;19554;42.652;23.364;2024-03-02T11:04:17;41.03;;;20.60;;
33190;SDS011;19554;42.652;23.364;2024-03-02T11:06:50;42.00;;;22.13;;
33190;SDS011;19554;42.652;23.364;2024-03-02T11:09:18;36.03;;;20.65;;
33190;SDS011;19554;42.652;23.364;2024-03-02T11:11:48;40.78;;;22.55;;
33190;SDS011;19554;42.652;23.364;2024-03-02T11:14:20;40.90;;;21.13;;
33190;SDS011;19554;42.652;23.364;2024-03-02T11:16:49;38.08;;;20.30;;
33190;SDS011;19554;42.652;23.364;2024-03-02T11:19:15;35.30;;;19.10;;
33190;SDS011;19554;42.652;23.364;2024-03-02T11:21:41;38.25;;;20.20;;
33190;SDS011;19554;42.652;23.364;2024-03-02T11:26:52;41.75;;;21.85;;
33190;SDS011;19554;42.652;23.364;2024-03-02T11:32:17;38.63;;;21.65;;
33190;SDS011;19554;42.652;23.364;2024-03-02T11:34:46;37.42;;;21.30;;
33190;SDS011;19554;42.652;23.364;2024-03-02T11:37:14;38.95;;;19.67;;
33190;SDS011;19554;42.652;23.364;2024-03-02T11:39:41;37.25;;;20.38;;
33190;SDS011;19554;42.652;23.364;2024-03-02T11:42:08;37.35;;;19.40;;
33190;SDS011;19554;42.652;23.364;2024-03-02T11:44:37;36.83;;;19.83;;
33190;SDS011;19554;42.652;23.364;2024-03-02T11:47:07;34.08;;;19.23;;
33190;SDS011;19554;42.652;23.364;2024-03-02T11:49:37;36.80;;;20.67;;
33190;SDS011;19554;42.652;23.364;2024-03-02T11:52:04;31.73;;;17.65;;
33190;SDS011;19554;42.652;23.364;2024-03-02T11:54:34;34.28;;;18.25;;
33190;SDS011;19554;42.652;23.364;2024-03-02T11:57:04;31.45;;;18.83;;
33190;SDS011;19554;42.652;23.364;2024-03-02T11:59:31;32.35;;;18.58;;
33190;SDS011;19554;42.652;23.364;2024-03-02T12:01:57;28.90;;;17.10;;
33190;SDS011;19554;42.652;23.364;2024-03-02T12:04:23;30.02;;;16.70;;
33190;SDS011;19554;42.652;23.364;2024-03-02T12:06:55;26.33;;;16.42;;
33190;SDS011;19554;42.652;23.364;2024-03-02T12:09:21;29.30;;;17.35;;
33190;SDS011;19554;42.652;23.364;2024-03-02T12:11:47;34.10;;;17.77;;
33190;SDS011;19554;42.652;23.364;2024-03-02T12:14:13;32.22;;;17.20;;
33190;SDS011;19554;42.652;23.364;2024-03-02T12:16:38;28.58;;;16.35;;
33190;SDS011;19554;42.652;23.364;2024-03-02T12:19:05;29.60;;;16.67;;
33190;SDS011;19554;42.652;23.364;2024-03-02T12:21:31;32.70;;;17.83;;
33190;SDS011;19554;42.652;23.364;2024-03-02T12:23:57;34.50;;;16.17;;
33190;SDS011;19554;42.652;23.364;2024-03-02T12:26:22;28.52;;;16.33;;
33190;SDS011;19554;42.652;23.364;2024-03-02T12:28:48;28.23;;;16.48;;
33190;SDS011;19554;42.652;23.364;2024-03-02T12:31:14;30.40;;;16.83;;
33190;SDS011;19554;42.652;23.364;2024-03-02T12:33:40;27.10;;;16.13;;
33190;SDS011;19554;42.652;23.364;2024-03-02T12:36:09;26.73;;;16.10;;
33190;SDS011;19554;42.652;23.364;2024-03-02T12:38:37;29.30;;;16.55;;
33190;SDS011;19554;42.652;23.364;2024-03-02T12:41:02;27.55;;;16.17;;
33190;SDS011;19554;42.652;23.364;2024-03-02T12:43:30;28.33;;;17.27;;
33190;SDS011;19554;42.652;23.364;2024-03-02T12:45:56;30.88;;;17.33;;
33190;SDS011;19554;42.652;23.364;2024-03-02T12:48:23;31.92;;;17.63;;
33190;SDS011;19554;42.652;23.364;2024-03-02T12:50:48;29.45;;;18.42;;
33190;SDS011;19554;42.652;23.364;2024-03-02T12:53:15;30.17;;;16.42;;
33190;SDS011;19554;42.652;23.364;2024-03-02T12:55:41;28.35;;;17.58;;
33190;SDS011;19554;42.652;23.364;2024-03-02T12:58:08;27.52;;;16.48;;
33190;SDS011;19554;42.652;23.364;2024-03-02T13:00:34;26.25;;;15.93;;
33190;SDS011;19554;42.652;23.364;2024-03-02T13:03:00;26.58;;;15.73;;
33190;SDS011;19554;42.652;23.364;2024-03-02T13:05:31;26.70;;;15.40;;
33190;SDS011;19554;42.652;23.364;2024-03-02T13:07:57;27.20;;;16.27;;
33190;SDS011;19554;42.652;23.364;2024-03-02T13:10:24;25.58;;;15.95;;
33190;SDS011;19554;42.652;23.364;2024-03-02T13:12:50;29.13;;;17.20;;
33190;SDS011;19554;42.652;23.364;2024-03-02T13:15:15;27.58;;;16.08;;
33190;SDS011;19554;42.652;23.364;2024-03-02T13:17:41;27.98;;;16.05;;
33190;SDS011;19554;42.652;23.364;2024-03-02T13:20:07;28.75;;;17.42;;
33190;SDS011;19554;42.652;23.364;2024-03-02T13:22:35;28.77;;;16.90;;
33190;SDS011;19554;42.652;23.364;2024-03-02T13:25:01;28.00;;;17.02;;
33190;SDS011;19554;42.652;23.364;2024-03-02T13:27:30;36.42;;;19.20;;
33190;SDS011;19554;42.652;23.364;2024-03-02T13:29:57;29.38;;;17.42;;
33190;SDS011;19554;42.652;23.364;2024-03-02T13:32:23;28.83;;;17.48;;
33190;SDS011;19554;42.652;23.364;2024-03-02T13:34:49;28.63;;;17.02;;
33190;SDS011;19554;42.652;23.364;2024-03-02T13:37:15;30.90;;;17.95;;
33190;SDS011;19554;42.652;23.364;2024-03-02T13:39:40;27.80;;;16.95;;
33190;SDS011;19554;42.652;23.364;2024-03-02T13:42:10;30.40;;;16.48;;
33190;SDS011;19554;42.652;23.364;2024-03-02T13:44:36;28.48;;;17.67;;
33190;SDS011;19554;42.652;23.364;2024-03-02T13:47:02;28.55;;;16.80;;
33190;SDS011;19554;42.652;23.364;2024-03-02T13:49:28;29.85;;;17.45;;
33190;SDS011;19554;42.652;23.364;2024-03-02T13:52:03;28.50;;;16.55;;
33190;SDS011;19554;42.652;23.364;2024-03-02T13:54:38;32.45;;;17.55;;
33190;SDS011;19554;42.652;23.364;2024-03-02T13:57:05;27.50;;;16.33;;
33190;SDS011;19554;42.652;23.364;2024-03-02T13:59:32;29.83;;;17.65;;
33190;SDS011;19554;42.652;23.364;2024-03-02T14:01:59;30.50;;;18.27;;
33190;SDS011;19554;42.652;23.364;2024-03-02T14:04:26;30.63;;;17.67;;
33190;SDS011;19554;42.652;23.364;2024-03-02T14:06:51;30.02;;;16.25;;
33190;SDS011;19554;42.652;23.364;2024-03-02T14:09:18;28.42;;;16.95;;
33190;SDS011;19554;42.652;23.364;2024-03-02T14:11:45;25.15;;;15.57;;
33190;SDS011;19554;42.652;23.364;2024-03-02T14:14:11;27.40;;;16.20;;
33190;SDS011;19554;42.652;23.364;2024-03-02T14:16:36;31.35;;;17.70;;
33190;SDS011;19554;42.652;23.364;2024-03-02T14:19:02;31.92;;;18.13;;
33190;SDS011;19554;42.652;23.364;2024-03-02T14:21:29;32.08;;;18.30;;
33190;SDS011;19554;42.652;23.364;2024-03-02T14:23:56;28.35;;;17.40;;